M I D A S
Marine Information and Data Acquisition System
Tripno 273 of the Zeeleeuw from 2002-05-03 06:46:01 to 2002-05-03 16:02:10
Back to CruiseResearch ActivitiesStationsMapUnderway DataData graphs

EquipmentUnitsComment
TimeDGPSUTC
LatitudeDGPSDM.mWGS84
LongitudeDGPSDM.mWGS84
TemperatureSBE03/SBE38deg celciusITS90
ConductivitySBE21S/mITS90
SalinitySBE21 Practical Salinity Units
ChlorophylAChelsea fluorimeterg/lCalibrated in Aceton
Missing or incorrect values are displayed as -999
Sea surface data collected by the RV Zeeleeuw from 2002-05-03 06:46:01 to 2002-05-03 16:02:10
Time Latitude Longitude Temperature Conductivity Salinity ChlorophylA
2002-05-03 06:47:06 51°13.698 2°55.791 23.062362 0.192667 1.131122  
2002-05-03 06:48:05 51°13.705 2°55.76 22.792047 0.192667 1.130929  
2002-05-03 06:49:06 51°13.702 2°55.739 24.106601 0.192667 1.131179  
2002-05-03 06:50:06 51°13.692 2°55.73 21.545568 0.192667 1.131044  
2002-05-03 06:51:05 51°13.7 2°55.72 22.278678 0.192667 1.130986  
2002-05-03 06:52:06 51°13.786 2°55.673 22.2641 0.192667 1.131044  
2002-05-03 06:53:05 51°13.889 2°55.593 21.90497 0.192766 1.131635  
2002-05-03 06:54:06 51°14.004 2°55.508 21.53856 0.192766 1.131674  
2002-05-03 06:55:06 51°14.118 2°55.423 19.81823 0.192766 1.131693  
2002-05-03 06:56:05 51°14.225 2°55.316 20.508125 0.192766 1.131751  
2002-05-03 06:57:06 51°14.317 2°55.169 20.431552 0.192766 1.131828  
2002-05-03 06:58:05 51°14.401 2°55.011 21.820505 0.192766 1.131944  
2002-05-03 06:59:06 51°14.545 2°54.831 20.602149 0.192766 1.132041  
2002-05-03 07:00:05 51°14.726 2°54.726 21.702489 0.192864 1.132825  
2002-05-03 07:01:06 51°14.929 2°54.714 21.467017 0.192864 1.13298  
2002-05-03 07:02:06 51°15.122 2°54.801 21.914423 0.192864 1.133115  
2002-05-03 07:03:05 51°15.303 2°54.934 19.841513 0.192963 1.1339  
2002-05-03 07:04:05 51°15.469 2°55.115 21.570862 0.192963 1.134055  
2002-05-03 07:05:06 51°15.619 2°55.345 22.435249 0.193062 1.134821  
2002-05-03 07:06:06 51°15.786 2°55.582 22.796521 0.193062 1.135073  
2002-05-03 07:07:05 51°15.95 2°55.822 23.889929 0.193161 1.13582  
2002-05-03 07:08:05 51°16.086 2°56.106 24.259752 0.193161 1.135956  
2002-05-03 07:09:06 51°16.203 2°56.418 24.217156 0.193161 1.136014  
2002-05-03 07:10:06 51°16.326 2°56.719 22.434389 0.19326 1.136781  
2002-05-03 07:11:06 51°16.448 2°57.021 23.119975 0.19326 1.136878  
2002-05-03 07:12:06 51°16.568 2°57.325 22.502431 0.19326 1.136976  
2002-05-03 07:13:06 51°16.681 2°57.634 22.198813 0.19326 1.137073  
2002-05-03 07:14:06 51°16.797 2°57.94 21.90044 0.19326 1.137151  
2002-05-03 07:15:05 51°16.911 2°58.244 24.64492 0.193359 1.137801  
2002-05-03 07:16:06 51°17.029 2°58.56 23.37992 0.193359 1.137898  
2002-05-03 07:17:05 51°17.144 2°58.867 23.782251 0.193359 1.138035  
2002-05-03 07:18:05 51°17.255 2°59.184 22.630717 0.193359 1.138074  
2002-05-03 07:19:05 51°17.361 2°59.508 23.671415 0.193359 1.138113  
2002-05-03 07:20:05 51°17.476 2°59.822 23.185785 0.193359 1.138249  
2002-05-03 07:21:05 51°17.604 3°0.125 23.749356 0.193359 1.138444  
2002-05-03 07:22:05 51°17.727 3°0.43 23.874485 0.193359 1.138522  
2002-05-03 07:23:05 51°17.851 3°0.735 23.223656 0.193457 1.13931  
2002-05-03 07:24:05 51°17.975 3°1.04 23.906864 0.193457 1.139368  
2002-05-03 07:25:06 51°18.103 3°1.351 22.920749 0.193457 1.139427  
2002-05-03 07:26:05 51°18.224 3°1.654 24.39036 0.193457 1.139524  
2002-05-03 07:27:06 51°18.349 3°1.962 23.84815 0.193457 1.13972  
2002-05-03 07:28:06 51°18.472 3°2.262 23.901577 0.193457 1.139856  
2002-05-03 07:29:05 51°18.592 3°2.555 23.135194 0.193458 1.139915  
2002-05-03 07:30:06 51°18.714 3°2.857 23.720633 0.193458 1.139993  
2002-05-03 07:31:06 51°18.834 3°3.154 24.835229 0.193458 1.14011  
2002-05-03 07:32:06 51°18.956 3°3.448 23.292384 0.193458 1.140286  
2002-05-03 07:33:06 51°19.079 3°3.744 23.377218 0.193458 1.140404  
2002-05-03 07:34:05 51°19.199 3°4.034 24.310629 0.193458 1.140541  
2002-05-03 07:35:06 51°19.323 3°4.33 23.796717 0.193458 1.140619  
2002-05-03 07:36:05 51°19.459 3°4.594 24.004487 0.193359 1.140124  
2002-05-03 07:37:06 51°19.616 3°4.842 23.334949 0.193458 1.140873  
2002-05-03 07:38:06 51°19.763 3°5.093 23.387792 0.193359 1.140398  
2002-05-03 07:39:05 51°19.908 3°5.337 23.786242 0.193458 1.141167  
2002-05-03 07:40:05 51°20.056 3°5.583 23.651811 0.193458 1.141383  
2002-05-03 07:41:06 51°20.207 3°5.831 23.827673 0.193458 1.141383  
2002-05-03 07:42:06 51°20.354 3°6.076 24.312038 0.193458 1.141461  
2002-05-03 07:43:06 51°20.5 3°6.321 23.645198 0.193458 1.141559  
2002-05-03 07:44:06 51°20.647 3°6.565 23.188609 0.193458 1.141696  
2002-05-03 07:45:06 51°20.795 3°6.809 24.345822 0.193458 1.141853  
2002-05-03 07:46:06 51°20.943 3°7.054 24.488399 0.193458 1.141971  
2002-05-03 07:47:06 51°21.092 3°7.3 24.603269 0.193458 1.142089  
2002-05-03 07:48:06 51°21.256 3°7.524 22.729342 0.193458 1.142187  
2002-05-03 07:49:06 51°21.42 3°7.749 24.22917 0.193458 1.142344  
2002-05-03 07:50:06 51°21.584 3°7.977 24.370873 0.193458 1.142462  
2002-05-03 07:51:05 51°21.745 3°8.202 23.575189 0.193458 1.142599  
2002-05-03 07:52:05 51°21.909 3°8.428 24.720611 0.193458 1.142678  
2002-05-03 07:53:05 51°22.072 3°8.659 22.014905 0.193458 1.142737  
2002-05-03 07:54:06 51°22.244 3°8.88 24.473158 0.193458 1.142815  
2002-05-03 07:55:06 51°22.414 3°9.095 23.641546 0.193458 1.142874  
2002-05-03 07:56:06 51°22.57 3°9.274 24.285709 0.193458 1.143032  
2002-05-03 07:57:06 51°22.661 3°9.287 24.120277 0.193458 1.14313  
2002-05-03 07:58:06 51°22.728 3°9.283 22.297093 0.193458 1.143169  
2002-05-03 07:59:06 51°22.755 3°9.32 25.091259 0.193359 1.142771  
2002-05-03 08:00:06 51°22.721 3°9.365 22.204815 0.193458 1.143563  
2002-05-03 08:01:06 51°22.701 3°9.371 22.261121 0.193359 1.143106  
2002-05-03 08:02:05 51°22.695 3°9.359 22.280598 0.193359 1.143145  
2002-05-03 08:03:06 51°22.689 3°9.344 22.619408 0.193359 1.143106  
2002-05-03 08:04:06 51°22.682 3°9.328 22.992172 0.193359 1.143086  
2002-05-03 08:05:06 51°22.674 3°9.31 22.307239 0.193359 1.143145  
2002-05-03 08:06:06 51°22.666 3°9.291 23.101577 0.193359 1.143204  
2002-05-03 08:07:06 51°22.657 3°9.271 22.854464 0.193359 1.143342  
2002-05-03 08:08:05 51°22.649 3°9.251 22.583207 0.19326 1.142865  
2002-05-03 08:09:05 51°22.64 3°9.229 22.762978 0.19326 1.142905  
2002-05-03 08:10:06 51°22.63 3°9.208 22.655473 0.193161 1.142349  
2002-05-03 08:11:06 51°22.621 3°9.186 22.993065 0.193161 1.142369  
2002-05-03 08:12:05 51°22.612 3°9.164 22.631263 0.193161 1.142428  
2002-05-03 08:13:05 51°22.602 3°9.142 22.327761 0.193062 1.141833  
2002-05-03 08:14:06 51°22.594 3°9.118 22.891927 0.193062 1.141852  
2002-05-03 08:15:06 51°22.584 3°9.093 23.860303 0.192963 1.141277  
2002-05-03 08:16:05 51°22.569 3°9.033 23.03666 0.192963 1.141356  
2002-05-03 08:17:06 51°22.618 3°8.941 23.022041 0.192963 1.141513  
2002-05-03 08:18:06 51°22.663 3°9.016 22.579344 0.192865 1.140839  
2002-05-03 08:19:05 51°22.667 3°9.114 22.243324 0.192865 1.1408  
2002-05-03 08:20:06 51°22.676 3°9.209 22.554366 0.192766 1.140264  
2002-05-03 08:21:06 51°22.681 3°9.319 22.567168 0.192766 1.140343  
2002-05-03 08:22:05 51°22.705 3°9.452 23.758723 0.192766 1.140401  
2002-05-03 08:23:05 51°22.723 3°9.505 25.229378 0.192766 1.140421  
2002-05-03 08:24:06 51°22.725 3°9.504 23.051625 0.192667 1.139826  
2002-05-03 08:25:06 51°22.726 3°9.502 22.93799 0.192667 1.139885  
2002-05-03 08:26:06 51°22.727 3°9.498 24.479544 0.192667 1.139983  
2002-05-03 08:27:05 51°22.728 3°9.493 23.57057 0.192667 1.140081  
2002-05-03 08:28:06 51°22.729 3°9.486 25.483208 0.192667 1.14016  
2002-05-03 08:29:06 51°22.73 3°9.478 24.785437 0.192667 1.140239  
2002-05-03 08:30:06 51°22.731 3°9.469 24.615259 0.192568 1.139742  
2002-05-03 08:31:05 51°22.729 3°9.458 24.778889 0.192568 1.139879  
2002-05-03 08:32:06 51°22.728 3°9.454 26.057506 0.192568 1.139997  
2002-05-03 08:33:06 51°22.734 3°9.457 25.607755 0.192568 1.140076  
2002-05-03 08:34:05 51°22.741 3°9.467 23.658692 0.192568 1.140154  
2002-05-03 08:35:06 51°22.747 3°9.481 24.519289 0.192568 1.140213  
2002-05-03 08:36:06 51°22.751 3°9.497 24.605129 0.192568 1.140331  
2002-05-03 08:37:05 51°22.752 3°9.512 23.889584 0.192568 1.14043  
2002-05-03 08:38:05 51°22.749 3°9.524 24.985233 0.192469 1.139913  
2002-05-03 08:39:05 51°22.745 3°9.534 24.846084 0.192568 1.140627  
2002-05-03 08:40:05 51°22.741 3°9.541 24.549559 0.192469 1.14009  
2002-05-03 08:41:06 51°22.734 3°9.547 24.242137 0.192568 1.140745  
2002-05-03 08:42:06 51°22.728 3°9.553 25.246229 0.192469 1.140208  
2002-05-03 08:43:06 51°22.722 3°9.559 25.349361 0.192469 1.140326  
2002-05-03 08:44:05 51°22.758 3°9.65 25.462811 0.192469 1.140425  
2002-05-03 08:45:06 51°22.923 3°9.616 25.235509 0.192469 1.140365  
2002-05-03 08:46:06 51°23.108 3°9.408 25.478522 0.192469 1.140484  
2002-05-03 08:47:06 51°23.277 3°9.143 23.479566 0.192469 1.140819  
2002-05-03 08:48:06 51°23.423 3°8.85 25.746324 0.192469 1.141055  
2002-05-03 08:49:05 51°23.546 3°8.53 24.556242 0.192469 1.141193  
2002-05-03 08:50:06 51°23.686 3°8.214 25.40076 0.192568 1.142066  
2002-05-03 08:51:06 51°23.831 3°7.911 24.171557 0.192568 1.142481  
2002-05-03 08:52:06 51°23.964 3°7.593 25.042056 0.192568 1.142837  
2002-05-03 08:53:05 51°24.064 3°7.257 25.178461 0.192568 1.143034  
2002-05-03 08:54:06 51°24.143 3°6.891 26.076176 0.192568 1.143272  
2002-05-03 08:55:06 51°24.243 3°6.766 25.226744 0.192667 1.144325  
2002-05-03 08:56:06 51°24.3 3°6.8 23.584502 0.192667 1.144642  
2002-05-03 08:57:06 51°24.32 3°6.868 23.059378 0.192766 1.145438  
2002-05-03 08:58:06 51°24.339 3°6.972 24.514617 0.192766 1.145458  
2002-05-03 08:59:06 51°24.355 3°6.984 23.456826 0.192766 1.145458  
2002-05-03 09:00:05 51°24.369 3°6.976 23.369191 0.192766 1.145537  
2002-05-03 09:01:06 51°24.382 3°6.963 23.379765 0.192766 1.145676  
2002-05-03 09:02:06 51°24.377 3°6.926 25.227045 0.192766 1.145795  
2002-05-03 09:03:06 51°24.357 3°6.852 25.489619 0.192766 1.145895  
2002-05-03 09:04:06 51°24.343 3°6.766 23.947422 0.192766 1.145954  
2002-05-03 09:05:06 51°24.353 3°6.836 23.456441 0.192766 1.145974  
2002-05-03 09:06:06 51°24.368 3°6.873 24.090859 0.192766 1.145994  
2002-05-03 09:07:06 51°24.385 3°6.887 24.845479 0.192766 1.146133  
2002-05-03 09:08:06 51°24.399 3°6.899 25.164681 0.192766 1.146252  
2002-05-03 09:09:06 51°24.406 3°6.912 25.173303 0.192667 1.145774  
2002-05-03 09:10:05 51°24.411 3°6.926 25.214366 0.192667 1.145873  
2002-05-03 09:11:06 51°24.412 3°6.938 22.227954 0.192667 1.145952  
2002-05-03 09:12:06 51°24.366 3°6.966 23.89878 0.192667 1.146171  
2002-05-03 09:13:06 51°24.314 3°6.977 24.515567 0.192667 1.14637  
2002-05-03 09:14:06 51°24.3 3°6.973 25.357961 0.192568 1.145831  
2002-05-03 09:15:06 51°24.299 3°6.969 25.031268 0.192568 1.145871  
2002-05-03 09:16:05 51°24.302 3°6.968 25.007273 0.192568 1.145911  
2002-05-03 09:17:06 51°24.301 3°6.969 23.735149 0.192568 1.14607  
2002-05-03 09:18:06 51°24.295 3°6.968 25.3586 0.192469 1.145551  
2002-05-03 09:19:06 51°24.294 3°6.968 24.877692 0.192469 1.14571  
2002-05-03 09:20:06 51°24.298 3°6.966 25.222907 0.192469 1.14585  
2002-05-03 09:21:06 51°24.3 3°6.966 25.043149 0.192469 1.146009  
2002-05-03 09:22:06 51°24.297 3°6.968 24.792212 0.192469 1.146128  
2002-05-03 09:23:06 51°24.296 3°6.972 24.150637 0.192371 1.145629  
2002-05-03 09:24:06 51°24.298 3°6.975 24.937998 0.192371 1.145768  
2002-05-03 09:25:06 51°24.303 3°6.977 24.942908 0.192371 1.145968  
2002-05-03 09:26:06 51°24.308 3°6.979 25.758426 0.192371 1.146047  
2002-05-03 09:27:06 51°24.312 3°6.983 24.22959 0.192371 1.146207  
2002-05-03 09:28:06 51°24.315 3°6.988 25.070601 0.192371 1.146366  
2002-05-03 09:29:06 51°24.314 3°6.993 25.144609 0.192371 1.146625  
2002-05-03 09:30:06 51°24.306 3°6.991 25.466523 0.192272 1.146185  
2002-05-03 09:31:06 51°24.291 3°6.984 25.47481 0.192272 1.146385  
2002-05-03 09:32:05 51°24.273 3°6.976 25.479534 0.192272 1.146545  
2002-05-03 09:33:06 51°24.255 3°6.968 25.003499 0.192173 1.146065  
2002-05-03 09:34:05 51°24.24 3°6.959 24.980552 0.192173 1.146124  
2002-05-03 09:35:06 51°24.226 3°6.951 25.039491 0.192173 1.146184  
2002-05-03 09:36:05 51°24.219 3°6.953 25.381504 0.192173 1.146284  
2002-05-03 09:37:06 51°24.252 3°6.973 25.306044 0.192173 1.146524  
2002-05-03 09:38:05 51°24.346 3°6.992 25.010367 0.192074 1.146004  
2002-05-03 09:39:06 51°24.468 3°7.019 24.51625 0.192074 1.146243  
2002-05-03 09:40:06 51°24.596 3°7.039 25.232613 0.191975 1.145783  
2002-05-03 09:41:06 51°24.725 3°7.05 25.308073 0.191975 1.145943  
2002-05-03 09:42:06 51°24.856 3°7.058 24.970511 0.191975 1.146082  
2002-05-03 09:43:06 51°24.987 3°7.068 25.225578 0.191877 1.145602  
2002-05-03 09:44:06 51°25.118 3°7.081 25.806628 0.191877 1.145782  
2002-05-03 09:45:06 51°25.25 3°7.095 25.690606 0.191778 1.145381  
2002-05-03 09:46:06 51°25.381 3°7.112 25.204846 0.191778 1.145541  
2002-05-03 09:47:06 51°25.513 3°7.131 25.633424 0.191778 1.145741  
2002-05-03 09:48:06 51°25.642 3°7.166 25.514917 0.191778 1.145881  
2002-05-03 09:49:06 51°25.769 3°7.205 25.976557 0.191778 1.146021  
2002-05-03 09:50:06 51°25.893 3°7.257 24.103659 0.191778 1.146121  
2002-05-03 09:51:06 51°26.016 3°7.317 25.5972 0.191679 1.14564  
2002-05-03 09:52:06 51°26.138 3°7.377 24.23409 0.191679 1.14574  
2002-05-03 09:53:06 51°26.259 3°7.437 25.504761 0.191679 1.14584  
2002-05-03 09:54:06 51°26.379 3°7.496 25.827937 0.191679 1.146  
2002-05-03 09:55:06 51°26.5 3°7.557 25.558036 0.191679 1.14614  
2002-05-03 09:56:06 51°26.621 3°7.618 25.712098 0.19158 1.145699  
2002-05-03 09:57:06 51°26.742 3°7.678 25.36228 0.19158 1.145859  
2002-05-03 09:58:06 51°26.86 3°7.741 25.233704 0.19158 1.146019  
2002-05-03 09:59:06 51°26.975 3°7.822 25.480696 0.19158 1.1462  
2002-05-03 10:00:06 51°27.086 3°7.908 25.564178 0.19158 1.14634  
2002-05-03 10:01:06 51°27.195 3°8.003 25.181209 0.19158 1.14654  
2002-05-03 10:02:06 51°27.305 3°8.095 25.822676 0.191481 1.146099  
2002-05-03 10:03:06 51°27.413 3°8.187 25.433593 0.191481 1.146259  
2002-05-03 10:04:06 51°27.52 3°8.279 25.226594 0.191481 1.14636  
2002-05-03 10:05:06 51°27.62 3°8.386 26.03336 0.191383 1.145858  
2002-05-03 10:06:06 51°27.701 3°8.529 25.264656 0.191383 1.145978  
2002-05-03 10:07:06 51°27.782 3°8.639 24.640862 0.191383 1.146058  
2002-05-03 10:08:05 51°27.835 3°8.71 26.064015 0.191284 1.145476  
2002-05-03 10:09:06 51°27.875 3°8.77 25.026892 0.191284 1.145577  
2002-05-03 10:10:06 51°27.912 3°8.816 25.377224 0.191284 1.145597  
2002-05-03 10:11:06 51°27.946 3°8.862 24.887822 0.191185 1.145074  
2002-05-03 10:12:06 51°27.98 3°8.904 26.64426 0.191185 1.145155  
2002-05-03 10:13:06 51°28.002 3°8.949 25.589975 0.191086 1.144612  
2002-05-03 10:14:06 51°27.999 3°8.981 24.697347 0.191086 1.144793  
2002-05-03 10:15:06 51°27.989 3°8.995 24.786913 0.191086 1.144933  
2002-05-03 10:16:06 51°27.984 3°9.009 24.364135 0.190987 1.144411  
2002-05-03 10:17:06 51°27.984 3°9.02 25.331669 0.190987 1.144491  
2002-05-03 10:18:06 51°27.99 3°9.026 23.782059 0.190888 1.143969  
2002-05-03 10:19:06 51°28 3°9.025 24.69189 0.190888 1.144089  
2002-05-03 10:20:06 51°28.013 3°9.02 25.338619 0.190888 1.144189  
2002-05-03 10:21:06 51°28.023 3°9.016 26.423844 0.19079 1.143707  
2002-05-03 10:22:06 51°28.027 3°9.014 26.516023 0.19079 1.143827  
2002-05-03 10:23:06 51°28.027 3°9.012 26.18747 0.19079 1.143927  
2002-05-03 10:24:06 51°28.024 3°9.01 25.121782 0.190691 1.143404  
2002-05-03 10:25:06 51°28.019 3°9.006 25.269657 0.190691 1.143465  
2002-05-03 10:26:06 51°28.012 3°9.002 25.676324 0.190592 1.142882  
2002-05-03 10:27:06 51°28.004 3°8.998 22.742541 0.190592 1.142982  
2002-05-03 10:28:06 51°27.996 3°8.994 25.478597 0.190592 1.143042  
2002-05-03 10:29:06 51°27.988 3°8.993 24.858865 0.190592 1.143122  
2002-05-03 10:30:06 51°27.982 3°9 25.029306 0.190493 1.142559  
2002-05-03 10:31:06 51°27.979 3°9.013 24.789487 0.190493 1.142659  
2002-05-03 10:32:06 51°27.982 3°9.025 25.863227 0.190394 1.142116  
2002-05-03 10:33:06 51°27.99 3°9.031 25.812674 0.190394 1.142196  
2002-05-03 10:34:06 51°28.002 3°9.024 25.449497 0.190394 1.142297  
2002-05-03 10:35:06 51°28.018 3°9.007 25.999901 0.190295 1.141733  
2002-05-03 10:36:06 51°28.037 3°8.986 25.156698 0.190295 1.141833  
2002-05-03 10:37:06 51°28.052 3°8.977 24.570365 0.190295 1.141894  
2002-05-03 10:38:06 51°28.057 3°8.988 25.001424 0.190197 1.14139  
2002-05-03 10:39:06 51°28.05 3°9.005 24.35199 0.190197 1.14143  
2002-05-03 10:40:06 51°28.036 3°9.023 25.264732 0.190197 1.141531  
2002-05-03 10:41:06 51°28.023 3°9.034 25.231748 0.190197 1.141671  
2002-05-03 10:42:06 51°28.012 3°9.04 25.109386 0.190098 1.141187  
2002-05-03 10:43:06 51°28.001 3°9.043 25.504649 0.190098 1.141308  
2002-05-03 10:44:06 51°27.994 3°9.047 25.425902 0.227066 1.323657  
2002-05-03 10:45:06 51°27.991 3°9.052 25.973428 0.190098 1.141508  
2002-05-03 10:46:06 51°27.991 3°9.065 24.604294 0.190098 1.141569  
2002-05-03 10:47:05 51°27.983 3°9.089 24.852248 0.189999 1.141085  
2002-05-03 10:48:06 51°27.96 3°9.116 24.595453 0.189999 1.141145  
2002-05-03 10:49:06 51°27.923 3°9.124 25.192162 0.189999 1.141245  
2002-05-03 10:50:06 51°27.881 3°9.104 25.012254 0.189999 1.141326  
2002-05-03 10:51:06 51°27.846 3°9.065 25.41836 0.189999 1.141426  
2002-05-03 10:52:06 51°27.823 3°8.929 23.801283 0.1899 1.140902  
2002-05-03 10:53:06 51°27.88 3°8.623 24.394469 0.1899 1.140982  
2002-05-03 10:54:06 51°27.95 3°8.278 25.423538 0.1899 1.141043  
2002-05-03 10:55:06 51°28.022 3°7.926 23.619433 0.1899 1.141123  
2002-05-03 10:56:06 51°28.097 3°7.574 25.572641 0.1899 1.141243  
2002-05-03 10:57:06 51°28.171 3°7.218 25.053483 0.1899 1.141364  
2002-05-03 10:58:05 51°28.248 3°6.865 25.644535 0.189801 1.1409  
2002-05-03 10:59:06 51°28.31 3°6.491 25.785387 0.1899 1.141766  
2002-05-03 11:00:06 51°28.351 3°6.117 25.399672 0.1899 1.141987  
2002-05-03 11:01:06 51°28.401 3°5.741 26.315353 0.1899 1.142248  
2002-05-03 11:02:06 51°28.449 3°5.362 25.769779 0.1899 1.14251  
2002-05-03 11:03:06 51°28.477 3°4.976 24.052828 0.189999 1.143357  
2002-05-03 11:04:06 51°28.504 3°4.59 24.88083 0.189999 1.143578  
2002-05-03 11:05:06 51°28.532 3°4.204 23.86038 0.189999 1.14382  
2002-05-03 11:06:06 51°28.558 3°3.826 25.183392 0.190098 1.144627  
2002-05-03 11:07:06 51°28.604 3°3.634 25.664059 0.190098 1.144829  
2002-05-03 11:08:06 51°28.659 3°3.618 25.488831 0.190197 1.145738  
2002-05-03 11:09:05 51°28.677 3°3.702 25.718863 0.190197 1.146143  
2002-05-03 11:10:06 51°28.679 3°3.726 23.805158 0.190296 1.147073  
2002-05-03 11:11:06 51°28.674 3°3.739 24.467304 0.190296 1.147154  
2002-05-03 11:12:06 51°28.667 3°3.738 24.846159 0.190296 1.147255  
2002-05-03 11:13:06 51°28.661 3°3.732 25.535675 0.190296 1.147458  
2002-05-03 11:14:06 51°28.655 3°3.72 25.379101 0.190296 1.147599  
2002-05-03 11:15:06 51°28.649 3°3.705 26.21446 0.190296 1.147741  
2002-05-03 11:16:06 51°28.643 3°3.687 25.396857 0.190296 1.147863  
2002-05-03 11:17:06 51°28.641 3°3.671 25.826594 0.190296 1.147985  
2002-05-03 11:18:06 51°28.643 3°3.657 26.282392 0.190296 1.148086  
2002-05-03 11:19:06 51°28.651 3°3.642 26.329845 0.190197 1.14754  
2002-05-03 11:20:06 51°28.66 3°3.633 23.697315 0.190197 1.147581  
2002-05-03 11:21:06 51°28.662 3°3.688 23.799978 0.190197 1.147764  
2002-05-03 11:22:06 51°28.658 3°3.739 25.874975 0.190197 1.147967  
2002-05-03 11:23:06 51°28.645 3°3.742 25.700026 0.190098 1.1474  
2002-05-03 11:24:06 51°28.63 3°3.739 24.971983 0.190098 1.147441  
2002-05-03 11:25:06 51°28.619 3°3.744 26.327547 0.190098 1.147502  
2002-05-03 11:26:06 51°28.613 3°3.741 25.836519 0.189999 1.146935  
2002-05-03 11:27:06 51°28.612 3°3.732 25.812301 0.189999 1.147037  
2002-05-03 11:28:06 51°28.614 3°3.718 26.092463 0.1899 1.146511  
2002-05-03 11:29:06 51°28.618 3°3.701 26.161213 0.1899 1.146653  
2002-05-03 11:30:06 51°28.621 3°3.69 25.426615 0.1899 1.146815  
2002-05-03 11:31:06 51°28.618 3°3.687 25.403687 0.189801 1.146289  
2002-05-03 11:32:06 51°28.617 3°3.68 24.814991 0.189801 1.14637  
2002-05-03 11:33:06 51°28.62 3°3.663 25.159748 0.189801 1.146391  
2002-05-03 11:34:06 51°28.624 3°3.635 25.163664 0.189703 1.145844  
2002-05-03 11:35:06 51°28.651 3°3.625 24.674645 0.189604 1.145338  
2002-05-03 11:36:06 51°28.664 3°3.662 25.455686 0.189604 1.145521  
2002-05-03 11:37:06 51°28.661 3°3.693 25.823534 0.189505 1.144954  
2002-05-03 11:38:06 51°28.654 3°3.71 25.175185 0.189505 1.145015  
2002-05-03 11:39:06 51°28.641 3°3.716 26.135244 0.189406 1.144488  
2002-05-03 11:40:06 51°28.622 3°3.713 26.04549 0.189406 1.144569  
2002-05-03 11:41:06 51°28.598 3°3.706 25.181585 0.189406 1.14463  
2002-05-03 11:42:06 51°28.571 3°3.692 26.241848 0.189307 1.144103  
2002-05-03 11:43:06 51°28.541 3°3.671 26.104657 0.189307 1.144225  
2002-05-03 11:44:06 51°28.509 3°3.641 25.872178 0.189307 1.144347  
2002-05-03 11:45:06 51°28.478 3°3.601 26.05505 0.189209 1.14384  
2002-05-03 11:46:06 51°28.45 3°3.55 25.812973 0.189209 1.143921  
2002-05-03 11:47:06 51°28.374 3°3.453 25.709893 0.189209 1.143942  
2002-05-03 11:48:06 51°28.181 3°3.263 25.307134 0.18911 1.143293  
2002-05-03 11:49:06 51°27.974 3°3.05 24.731028 0.189011 1.142665  
2002-05-03 11:50:06 51°27.783 3°2.793 25.707016 0.189011 1.142645  
2002-05-03 11:51:06 51°27.605 3°2.51 23.877283 0.188912 1.142016  
2002-05-03 11:52:06 51°27.422 3°2.229 24.461411 0.188912 1.142077  
2002-05-03 11:53:06 51°27.24 3°1.95 25.301346 0.188912 1.142178  
2002-05-03 11:54:06 51°27.057 3°1.672 25.676025 0.188813 1.141712  
2002-05-03 11:55:06 51°26.872 3°1.396 24.06013 0.188813 1.141915  
2002-05-03 11:56:06 51°26.689 3°1.117 25.186667 0.188813 1.142117  
2002-05-03 11:57:06 51°26.507 3°0.838 26.106701 0.188813 1.1423  
2002-05-03 11:58:06 51°26.33 3°0.557 25.3785 0.188813 1.142442  
2002-05-03 11:59:06 51°26.148 3°0.288 24.799402 0.188813 1.142665  
2002-05-03 12:00:06 51°25.953 3°0.045 26.162959 0.188813 1.142827  
2002-05-03 12:01:06 51°25.737 2°59.853 25.296836 0.188813 1.14303  
2002-05-03 12:02:06 51°25.51 2°59.703 25.118278 0.188813 1.143233  
2002-05-03 12:03:06 51°25.279 2°59.568 25.752786 0.188813 1.143355  
2002-05-03 12:04:06 51°25.043 2°59.484 25.989998 0.188813 1.143578  
2002-05-03 12:05:06 51°24.806 2°59.493 26.290513 0.188813 1.1437  
2002-05-03 12:06:06 51°24.568 2°59.476 25.763431 0.188813 1.143843  
2002-05-03 12:07:06 51°24.328 2°59.467 25.836742 0.188813 1.143985  
2002-05-03 12:08:06 51°24.09 2°59.461 25.992307 0.188813 1.144066  
2002-05-03 12:09:06 51°23.853 2°59.462 26.086328 0.188813 1.144189  
2002-05-03 12:10:06 51°23.624 2°59.516 21.809541 0.188714 1.143661  
2002-05-03 12:11:06 51°23.434 2°59.559 22.095133 0.188715 1.143823  
2002-05-03 12:12:06 51°23.325 2°59.604 21.411746 0.188715 1.144027  
2002-05-03 12:13:06 51°23.279 2°59.692 21.804018 0.188715 1.144027  
2002-05-03 12:14:06 51°23.241 2°59.784 21.378936 0.188715 1.144149  
2002-05-03 12:15:06 51°23.229 2°59.889 21.215969 0.188616 1.14358  
2002-05-03 12:16:06 51°23.229 3°0.023 21.714299 0.188616 1.143682  
2002-05-03 12:17:06 51°23.23 3°0.041 21.616202 0.188616 1.143763  
2002-05-03 12:18:06 51°23.23 3°0.036 21.649654 0.188517 1.143194  
2002-05-03 12:19:06 51°23.227 3°0.027 21.501689 0.188517 1.143316  
2002-05-03 12:20:06 51°23.226 3°0.016 21.70636 0.188517 1.143438  
2002-05-03 12:21:06 51°23.224 3°0.003 22.041448 0.188418 1.142869  
2002-05-03 12:22:06 51°23.222 2°59.99 21.372904 0.188418 1.142971  
2002-05-03 12:23:06 51°23.22 2°59.979 21.477084 0.188418 1.142991  
2002-05-03 12:24:06 51°23.225 2°59.977 21.397585 0.188418 1.143093  
2002-05-03 12:25:06 51°23.236 2°59.979 21.729346 0.188319 1.142544  
2002-05-03 12:26:06 51°23.248 2°59.982 21.572999 0.188319 1.142605  
2002-05-03 12:27:06 51°23.251 2°59.986 21.577075 0.188319 1.142748  
2002-05-03 12:28:06 51°23.255 2°59.982 21.644989 0.18822 1.142178  
2002-05-03 12:29:06 51°23.257 2°59.977 21.467612 0.18822 1.142239  
2002-05-03 12:30:06 51°23.259 2°59.97 21.765271 0.18822 1.142321  
2002-05-03 12:31:06 51°23.258 2°59.964 21.400282 0.18822 1.142382  
2002-05-03 12:32:06 51°23.255 2°59.965 21.512463 0.188122 1.141893  
2002-05-03 12:33:06 51°23.253 2°59.962 21.394133 0.188122 1.141975  
2002-05-03 12:34:06 51°23.251 2°59.959 21.918126 0.188122 1.142077  
2002-05-03 12:35:06 51°23.247 2°59.96 21.594168 0.188122 1.142178  
2002-05-03 12:36:06 51°23.241 2°59.964 22.011325 0.188023 1.14169  
2002-05-03 12:37:06 51°23.236 2°59.968 21.882474 0.188023 1.141772  
2002-05-03 12:38:06 51°23.233 2°59.967 21.832178 0.188023 1.141873  
2002-05-03 12:39:06 51°23.233 2°59.966 21.950059 0.188023 1.141996  
2002-05-03 12:40:06 51°23.233 2°59.966 21.392149 0.188023 1.142118  
2002-05-03 12:41:06 51°23.231 2°59.963 21.730333 0.187924 1.141568  
2002-05-03 12:42:06 51°23.23 2°59.962 21.869155 0.187924 1.14167  
2002-05-03 12:43:06 51°23.232 2°59.962 21.682893 0.187924 1.141751  
2002-05-03 12:44:06 51°23.231 2°59.956 21.710271 0.187924 1.141853  
2002-05-03 12:45:06 51°23.233 2°59.952 21.668073 0.187924 1.141935  
2002-05-03 12:46:06 51°23.235 2°59.947 22.077413 0.187825 1.141426  
2002-05-03 12:47:06 51°23.238 2°59.942 21.655504 0.187825 1.141487  
2002-05-03 12:48:06 51°23.266 2°59.919 21.664635 0.187825 1.141589  
2002-05-03 12:49:06 51°23.261 2°59.778 21.693679 0.187825 1.141793  
2002-05-03 12:50:06 51°23.159 2°59.501 22.139827 0.187726 1.141039  
2002-05-03 12:51:06 51°23.038 2°59.158 21.60746 0.187726 1.141242  
2002-05-03 12:52:06 51°22.921 2°58.806 21.70873 0.187726 1.141406  
2002-05-03 12:53:06 51°22.803 2°58.453 21.496182 0.187726 1.141548  
2002-05-03 12:54:06 51°22.682 2°58.101 22.165774 0.187726 1.141793  
2002-05-03 12:55:06 51°22.541 2°57.77 21.769494 0.187726 1.141956  
2002-05-03 12:56:06 51°22.392 2°57.445 21.73594 0.187726 1.142181  
2002-05-03 12:57:06 51°22.242 2°57.124 21.747192 0.187726 1.142385  
2002-05-03 12:58:06 51°22.093 2°56.805 21.778373 0.187726 1.14261  
2002-05-03 12:59:06 51°21.948 2°56.481 21.751101 0.187726 1.142814  
2002-05-03 13:00:06 51°21.819 2°56.141 21.919189 0.187726 1.142998  
2002-05-03 13:01:06 51°21.696 2°55.791 21.720382 0.187726 1.143121  
2002-05-03 13:02:07 51°21.6 2°55.414 21.444541 0.187726 1.143285  
2002-05-03 13:03:06 51°21.502 2°55.051 21.429791 0.187726 1.143387  
2002-05-03 13:04:06 51°21.403 2°54.681 21.783345 0.187726 1.14349  
2002-05-03 13:05:06 51°21.303 2°54.312 21.89067 0.187726 1.143653  
2002-05-03 13:06:06 51°21.205 2°53.942 21.445533 0.187825 1.144409  
2002-05-03 13:07:06 51°21.107 2°53.573 22.043689 0.187825 1.144573  
2002-05-03 13:08:06 51°21.009 2°53.203 21.554277 0.187825 1.144779  
2002-05-03 13:09:06 51°20.911 2°52.833 21.756074 0.187825 1.144984  
2002-05-03 13:10:06 51°20.813 2°52.464 21.7436 0.187825 1.145168  
2002-05-03 13:11:06 51°20.714 2°52.096 21.647598 0.187825 1.145435  
2002-05-03 13:12:06 51°20.617 2°51.727 21.839985 0.187924 1.146234  
2002-05-03 13:13:06 51°20.517 2°51.36 21.743126 0.187924 1.14646  
2002-05-03 13:14:06 51°20.419 2°50.994 22.023635 0.187924 1.146686  
2002-05-03 13:15:06 51°20.319 2°50.632 21.644396 0.187924 1.146892  
2002-05-03 13:16:06 51°20.229 2°50.264 22.110885 0.187924 1.147056  
2002-05-03 13:17:06 51°20.138 2°49.894 21.760772 0.187924 1.147262  
2002-05-03 13:18:06 51°20.047 2°49.525 21.924584 0.187924 1.147448  
2002-05-03 13:19:06 51°19.948 2°49.16 21.808673 0.188023 1.148371  
2002-05-03 13:20:06 51°19.83 2°48.809 21.730728 0.188023 1.148639  
2002-05-03 13:21:06 51°19.781 2°48.426 21.700514 0.188023 1.148866  
2002-05-03 13:22:06 51°19.774 2°48.064 22.101458 0.188023 1.149135  
2002-05-03 13:23:06 51°19.836 2°47.903 21.994292 0.188023 1.149424  
2002-05-03 13:24:06 51°19.889 2°47.76 21.715761 0.188122 1.150225  
2002-05-03 13:25:06 51°19.913 2°47.697 21.465551 0.188122 1.150494  
2002-05-03 13:26:06 51°19.922 2°47.677 21.757456 0.188122 1.150556  
2002-05-03 13:27:06 51°19.926 2°47.752 21.96726 0.188122 1.150867  
2002-05-03 13:28:06 51°19.916 2°47.823 21.644633 0.188122 1.151136  
2002-05-03 13:29:06 51°19.894 2°47.833 21.766968 0.188221 1.152  
2002-05-03 13:30:06 51°19.876 2°47.848 21.265113 0.188122 1.151468  
2002-05-03 13:31:06 51°19.861 2°47.851 21.455523 0.188221 1.15227  
2002-05-03 13:32:06 51°19.845 2°47.844 21.942303 0.188221 1.152457  
2002-05-03 13:33:06 51°19.829 2°47.831 21.940177 0.188221 1.152602  
2002-05-03 13:34:06 51°19.813 2°47.814 21.64997 0.188122 1.152153  
2002-05-03 13:35:06 51°19.797 2°47.796 21.921276 0.188122 1.152298  
2002-05-03 13:36:06 51°19.78 2°47.801 21.820663 0.188122 1.152506  
2002-05-03 13:37:06 51°19.776 2°47.815 21.768586 0.188122 1.152693  
2002-05-03 13:38:07 51°19.786 2°47.81 21.608014 0.188122 1.152818  
2002-05-03 13:39:06 51°19.809 2°47.793 21.715761 0.188122 1.153109  
2002-05-03 13:40:06 51°19.852 2°47.77 21.778689 0.188023 1.152701  
2002-05-03 13:41:06 51°19.884 2°47.742 21.919662 0.188023 1.152888  
2002-05-03 13:42:06 51°19.902 2°47.689 22.147522 0.188023 1.153013  
2002-05-03 13:43:06 51°19.914 2°47.64 22.221091 0.188023 1.1532  
2002-05-03 13:44:06 51°19.92 2°47.593 21.93305 0.187924 1.152709  
2002-05-03 13:45:07 51°19.945 2°47.544 22.3334 0.187924 1.152709  
2002-05-03 13:46:06 51°19.963 2°47.61 22.052219 0.187924 1.152917  
2002-05-03 13:47:06 51°19.92 2°47.733 21.67416 0.187924 1.153104  
2002-05-03 13:48:06 51°19.884 2°47.747 22.203834 0.187825 1.152758  
2002-05-03 13:49:07 51°19.871 2°47.72 21.507512 0.187825 1.152883  
2002-05-03 13:50:06 51°19.85 2°47.694 21.814944 0.187825 1.152842  
2002-05-03 13:51:06 51°19.824 2°47.653 21.88409 0.187825 1.152904  
2002-05-03 13:52:06 51°19.809 2°47.568 21.752798 0.187825 1.153009  
2002-05-03 13:53:06 51°19.827 2°47.489 21.544974 0.187727 1.152516  
2002-05-03 13:54:06 51°19.829 2°47.434 22.058509 0.187727 1.152642  
2002-05-03 13:55:06 51°19.825 2°47.386 22.223366 0.187727 1.152787  
2002-05-03 13:56:06 51°19.817 2°47.34 21.960962 0.187628 1.152399  
2002-05-03 13:57:06 51°19.852 2°47.295 22.0396 0.187628 1.152712  
2002-05-03 13:58:06 51°19.873 2°47.458 21.822359 0.187628 1.153004  
2002-05-03 13:59:06 51°19.869 2°47.669 21.782674 0.187628 1.153234  
2002-05-03 14:00:06 51°19.893 2°47.811 22.164086 0.187529 1.1527  
2002-05-03 14:01:06 51°19.904 2°47.828 21.675819 0.187529 1.152867  
2002-05-03 14:02:06 51°19.911 2°47.826 21.573751 0.187529 1.152971  
2002-05-03 14:03:06 51°19.916 2°47.824 21.971628 0.187529 1.153243  
2002-05-03 14:04:07 51°19.922 2°47.825 21.998266 0.18743 1.152792  
2002-05-03 14:05:07 51°19.926 2°47.818 21.383976 0.18743 1.152938  
2002-05-03 14:06:06 51°19.931 2°47.801 21.944626 0.187331 1.152403  
2002-05-03 14:07:06 51°19.932 2°47.772 21.950452 0.187331 1.152508  
2002-05-03 14:08:07 51°19.927 2°47.729 22.173545 0.187233 1.151931  
2002-05-03 14:09:07 51°19.921 2°47.682 22.073719 0.187233 1.152056  
2002-05-03 14:10:06 51°19.917 2°47.638 21.747508 0.187134 1.151542  
2002-05-03 14:11:07 51°19.915 2°47.598 22.283929 0.187134 1.151772  
2002-05-03 14:12:06 51°19.914 2°47.567 21.633048 0.187134 1.15196  
2002-05-03 14:13:06 51°19.911 2°47.545 21.987053 0.187035 1.151509  
2002-05-03 14:14:06 51°19.907 2°47.54 21.812459 0.187035 1.151718  
2002-05-03 14:15:06 51°19.9 2°47.569 21.334596 0.187035 1.151885  
2002-05-03 14:16:06 51°19.886 2°47.599 21.811828 0.186936 1.151391  
2002-05-03 14:17:06 51°19.85 2°47.629 21.712009 0.186936 1.151517  
2002-05-03 14:18:06 51°19.764 2°47.525 21.784292 0.186936 1.151684  
2002-05-03 14:19:06 51°19.653 2°47.209 21.854808 0.186837 1.151086  
2002-05-03 14:20:06 51°19.544 2°46.866 21.8755 0.186837 1.151065  
2002-05-03 14:21:07 51°19.444 2°46.504 21.980836 0.186837 1.151086  
2002-05-03 14:22:07 51°19.347 2°46.146 21.638821 0.186738 1.15055  
2002-05-03 14:23:06 51°19.254 2°45.795 21.866002 0.186738 1.150717  
2002-05-03 14:24:06 51°19.165 2°45.439 21.441647 0.186738 1.150926  
2002-05-03 14:25:06 51°19.084 2°45.085 21.926317 0.186738 1.151178  
2002-05-03 14:26:07 51°19.004 2°44.733 21.805005 0.186738 1.151429  
2002-05-03 14:27:06 51°18.939 2°44.385 22.110296 0.18664 1.15106  
2002-05-03 14:28:06 51°18.878 2°44.052 21.639572 0.18664 1.151332  
2002-05-03 14:29:07 51°18.916 2°43.91 21.589539 0.18664 1.151689  
2002-05-03 14:30:06 51°18.945 2°43.884 22.170209 0.18664 1.15194  
2002-05-03 14:31:06 51°18.948 2°43.882 21.788711 0.18664 1.152045  
2002-05-03 14:32:06 51°18.942 2°43.89 21.955137 0.18664 1.15215  
2002-05-03 14:33:07 51°18.936 2°43.904 21.947224 0.18664 1.152171  
2002-05-03 14:34:06 51°18.933 2°43.919 21.920567 0.18664 1.152297  
2002-05-03 14:35:06 51°18.931 2°43.929 21.852797 0.18664 1.152444  
2002-05-03 14:36:07 51°18.932 2°43.934 21.911627 0.186541 1.15197  
2002-05-03 14:37:06 51°18.934 2°43.931 21.96297 0.186541 1.152096  
2002-05-03 14:38:07 51°18.936 2°43.918 22.181275 0.186541 1.152285  
2002-05-03 14:39:06 51°18.938 2°43.894 22.11281 0.186541 1.152369  
2002-05-03 14:40:07 51°18.941 2°43.862 21.83202 0.186541 1.152558  
2002-05-03 14:41:06 51°18.945 2°43.837 22.215209 0.186442 1.152084  
2002-05-03 14:42:06 51°18.954 2°43.819 21.931357 0.186442 1.152316  
2002-05-03 14:43:06 51°18.952 2°43.808 21.988352 0.186442 1.152547  
2002-05-03 14:44:07 51°18.939 2°43.798 21.917417 0.186442 1.152694  
2002-05-03 14:45:06 51°18.924 2°43.79 21.88011 0.186442 1.152862  
2002-05-03 14:46:06 51°18.928 2°43.773 22.05788 0.186442 1.153094  
2002-05-03 14:47:07 51°18.942 2°43.764 22.045576 0.186343 1.152725  
2002-05-03 14:48:06 51°18.946 2°43.764 21.850866 0.186343 1.152977  
2002-05-03 14:49:07 51°18.944 2°43.765 21.733413 0.186343 1.153167  
2002-05-03 14:50:07 51°18.945 2°43.774 21.598204 0.186343 1.153314  
2002-05-03 14:51:07 51°18.951 2°43.778 22.076548 0.186343 1.153378  
2002-05-03 14:52:06 51°18.954 2°43.772 22.007077 0.186343 1.153504  
2002-05-03 14:53:06 51°18.957 2°43.759 21.889054 0.186343 1.153631  
2002-05-03 14:54:06 51°18.956 2°43.741 22.015219 0.186343 1.153821  
2002-05-03 14:55:06 51°18.957 2°43.724 22.463396 0.186244 1.153472  
2002-05-03 14:56:06 51°18.959 2°43.707 22.013685 0.186244 1.153831  
2002-05-03 14:57:07 51°18.962 2°43.696 21.81597 0.186244 1.154254  
2002-05-03 14:58:06 51°18.968 2°43.688 21.78733 0.186244 1.154549  
2002-05-03 14:59:07 51°18.979 2°43.695 21.612681 0.186244 1.154867  
2002-05-03 15:00:07 51°18.983 2°43.718 21.657876 0.186244 1.155078  
2002-05-03 15:01:06 51°18.974 2°43.748 21.658113 0.186244 1.155247  
2002-05-03 15:02:06 51°18.954 2°43.779 21.871953 0.186146 1.154709  
2002-05-03 15:03:06 51°18.926 2°43.8 21.751574 0.186146 1.154751  
2002-05-03 15:04:07 51°18.893 2°43.804 21.597056 0.186146 1.154857  
2002-05-03 15:05:06 51°18.824 2°43.782 21.933641 0.186146 1.154878  
2002-05-03 15:06:06 51°18.633 2°43.829 21.820269 0.186146 1.15492  
2002-05-03 15:07:06 51°18.42 2°43.932 21.895437 0.186146 1.155153  
2002-05-03 15:08:06 51°18.201 2°44.034 22.158238 0.186047 1.154657  
2002-05-03 15:09:06 51°17.981 2°44.143 21.968952 0.186047 1.154784  
2002-05-03 15:10:06 51°17.763 2°44.259 22.009555 0.186047 1.154826  
2002-05-03 15:11:06 51°17.546 2°44.37 22.040111 0.185948 1.154287  
2002-05-03 15:12:07 51°17.323 2°44.484 21.976783 0.185948 1.154393  
2002-05-03 15:13:06 51°17.107 2°44.595 22.046047 0.185948 1.15452  
2002-05-03 15:14:06 51°16.89 2°44.717 21.734637 0.185849 1.154002  
2002-05-03 15:15:07 51°16.687 2°44.904 21.466859 0.185849 1.154108  
2002-05-03 15:16:06 51°16.513 2°45.135 21.567102 0.185849 1.154213  
2002-05-03 15:17:07 51°16.384 2°45.444 22.041055 0.18575 1.153526  
2002-05-03 15:18:06 51°16.281 2°45.768 22.006684 0.18575 1.153653  
2002-05-03 15:19:07 51°16.209 2°46.125 22.021433 0.185652 1.153113  
2002-05-03 15:20:07 51°16.124 2°46.473 22.049428 0.185652 1.15324  
2002-05-03 15:21:06 51°16.053 2°46.824 21.904143 0.185553 1.152658  
2002-05-03 15:22:06 51°15.982 2°47.186 21.977767 0.185553 1.152764  
2002-05-03 15:23:06 51°15.911 2°47.549 21.91143 0.185454 1.152246  
2002-05-03 15:24:06 51°15.838 2°47.909 22.073797 0.185454 1.152373  
2002-05-03 15:25:06 51°15.775 2°48.271 22.103736 0.185454 1.1525  
2002-05-03 15:26:07 51°15.708 2°48.635 21.804413 0.185355 1.151938  
2002-05-03 15:27:06 51°15.643 2°48.99 21.915881 0.185355 1.152023  
2002-05-03 15:28:08 51°15.577 2°49.364 21.816128 0.185355 1.152129  
2002-05-03 15:29:06 51°15.522 2°49.719 22.226111 0.185256 1.151589  
2002-05-03 15:30:07 51°15.466 2°50.093 21.716551 0.185256 1.151737  
2002-05-03 15:31:07 51°15.427 2°50.465 21.738783 0.185157 1.151303  
2002-05-03 15:32:07 51°15.421 2°50.846 22.040661 0.185157 1.151366  
2002-05-03 15:33:08 51°15.404 2°51.232 21.630478 0.185157 1.151514  
2002-05-03 15:34:07 51°15.338 2°51.585 21.805162 0.185059 1.150995  
2002-05-03 15:35:07 51°15.248 2°51.93 22.064483 0.185059 1.151122  
2002-05-03 15:36:07 51°15.147 2°52.267 21.714615 0.18496 1.150582  
2002-05-03 15:37:07 51°15.046 2°52.606 21.867381 0.18496 1.150688  
2002-05-03 15:38:08 51°14.946 2°52.95 22.121489 0.18496 1.150793  
2002-05-03 15:39:07 51°14.847 2°53.274 22.208031 0.184861 1.150253  
2002-05-03 15:40:07 51°14.74 2°53.54 22.19689 0.184861 1.150359  
2002-05-03 15:41:07 51°14.674 2°53.744 22.339234 0.184861 1.150486  
2002-05-03 15:42:07 51°14.627 2°53.872 21.989611 0.184762 1.149945  
2002-05-03 15:43:07 51°14.589 2°53.979 21.708098 0.184762 1.150114  
2002-05-03 15:44:08 51°14.561 2°54.085 21.926474 0.184663 1.149573  
2002-05-03 15:45:08 51°14.526 2°54.228 22.153842 0.184663 1.149679  
2002-05-03 15:46:08 51°14.475 2°54.526 21.844676 0.184663 1.149827  
2002-05-03 15:47:07 51°14.419 2°54.84 21.545291 0.184565 1.149223  
2002-05-03 15:48:07 51°14.332 2°55.108 21.804492 0.184565 1.14935  
2002-05-03 15:49:07 51°14.263 2°55.264 22.012702 0.184565 1.149498  
2002-05-03 15:50:07 51°14.195 2°55.362 21.982528 0.184466 1.148978  
2002-05-03 15:51:08 51°14.121 2°55.43 21.811592 0.184466 1.149147  
2002-05-03 15:52:07 51°14.046 2°55.488 21.746679 0.184466 1.149232  
2002-05-03 15:53:07 51°13.966 2°55.538 21.730175 0.184367 1.148669  
2002-05-03 15:54:07 51°13.888 2°55.589 21.913518 0.184367 1.148712  
2002-05-03 15:55:07 51°13.822 2°55.637 21.821649 0.184268 1.148107  
2002-05-03 15:56:08 51°13.777 2°55.689 21.692771 0.184268 1.148149  
2002-05-03 15:57:07 51°13.742 2°55.733 22.352896 0.184268 1.148191  
2002-05-03 15:58:07 51°13.716 2°55.787 22.058587 0.184169 1.147629  
2002-05-03 15:59:07 51°13.703 2°55.843 21.773638 0.184169 1.14765  
2002-05-03 16:00:07 51°13.692 2°55.889 21.751574 0.184071 1.147087  
2002-05-03 16:01:07 51°13.69 2°55.899 22.058509 0.184071 1.147171  
2002-05-03 16:02:07 51°13.687 2°55.905 22.119643 0.184071 1.147214